sensor_id;sensor_type;location;lat;lon;timestamp;pressure;altitude;pressure_sealevel;temperature;humidity
49947;BME280;35839;48.662;13.300;2023-03-04T05:38:21;97615.41;;;0.62;100.00
49947;BME280;35839;48.662;13.300;2023-03-04T05:40:47;97621.69;;;0.41;100.00
49947;BME280;35839;48.662;13.300;2023-03-04T05:43:14;97617.28;;;0.27;100.00
49947;BME280;35839;48.662;13.300;2023-03-04T05:45:40;97619.69;;;0.30;100.00
49947;BME280;35839;48.662;13.300;2023-03-04T05:48:06;97615.13;;;0.02;100.00
49947;BME280;35839;48.662;13.300;2023-03-04T05:50:32;97616.13;;;-0.01;100.00
49947;BME280;35839;48.662;13.300;2023-03-04T05:52:58;97621.88;;;0.05;100.00
49947;BME280;35839;48.662;13.300;2023-03-04T05:55:23;97628.25;;;0.47;100.00
49947;BME280;35839;48.662;13.300;2023-03-04T05:57:48;97631.19;;;0.40;100.00
49947;BME280;35839;48.662;13.300;2023-03-04T06:00:14;97627.19;;;0.51;100.00
49947;BME280;35839;48.662;13.300;2023-03-04T06:02:41;97628.88;;;0.68;100.00
49947;BME280;35839;48.662;13.300;2023-03-04T06:05:07;97629.53;;;0.71;100.00
49947;BME280;35839;48.662;13.300;2023-03-04T06:07:33;97632.84;;;0.41;100.00
49947;BME280;35839;48.662;13.300;2023-03-04T06:09:59;97624.53;;;0.36;100.00
49947;BME280;35839;48.662;13.300;2023-03-04T06:12:24;97632.19;;;0.38;100.00
49947;BME280;35839;48.662;13.300;2023-03-04T06:14:49;97632.84;;;0.41;100.00
49947;BME280;35839;48.662;13.300;2023-03-04T06:17:15;97635.50;;;0.56;100.00
49947;BME280;35839;48.662;13.300;2023-03-04T06:19:40;97642.28;;;0.25;100.00
49947;BME280;35839;48.662;13.300;2023-03-04T06:22:08;97642.56;;;0.03;100.00
49947;BME280;35839;48.662;13.300;2023-03-04T06:24:34;97644.38;;;-0.16;100.00
49947;BME280;35839;48.662;13.300;2023-03-04T06:27:00;97648.78;;;-0.01;100.00
49947;BME280;35839;48.662;13.300;2023-03-04T06:29:25;97660.22;;;0.27;100.00
49947;BME280;35839;48.662;13.300;2023-03-04T06:31:50;97648.47;;;0.38;100.00
49947;BME280;35839;48.662;13.300;2023-03-04T06:34:16;97649.59;;;0.66;100.00
49947;BME280;35839;48.662;13.300;2023-03-04T06:36:41;97658.81;;;0.70;100.00
49947;BME280;35839;48.662;13.300;2023-03-04T06:39:07;97653.22;;;0.62;100.00
49947;BME280;35839;48.662;13.300;2023-03-04T06:41:33;97657.25;;;0.34;100.00
49947;BME280;35839;48.662;13.300;2023-03-04T06:43:58;97664.88;;;0.69;100.00
49947;BME280;35839;48.662;13.300;2023-03-04T06:46:24;97669.28;;;0.99;100.00
49947;BME280;35839;48.662;13.300;2023-03-04T06:48:49;97670.03;;;0.69;100.00
49947;BME280;35839;48.662;13.300;2023-03-04T06:51:15;97668.16;;;0.89;100.00
49947;BME280;35839;48.662;13.300;2023-03-04T06:53:41;97668.91;;;1.37;100.00
49947;BME280;35839;48.662;13.300;2023-03-04T06:56:08;97663.91;;;1.80;100.00
49947;BME280;35839;48.662;13.300;2023-03-04T06:58:34;97664.22;;;1.59;100.00
49947;BME280;35839;48.662;13.300;2023-03-04T07:01:20;97666.16;;;1.40;100.00
49947;BME280;35839;48.662;13.300;2023-03-04T07:03:47;97671.28;;;1.86;100.00
49947;BME280;35839;48.662;13.300;2023-03-04T07:06:14;97672.44;;;1.96;100.00
49947;BME280;35839;48.662;13.300;2023-03-04T07:08:40;97667.84;;;1.71;100.00
49947;BME280;35839;48.662;13.300;2023-03-04T07:11:06;97671.94;;;1.75;100.00
49947;BME280;35839;48.662;13.300;2023-03-04T07:13:32;97674.28;;;1.94;100.00
49947;BME280;35839;48.662;13.300;2023-03-04T07:16:00;97674.09;;;1.97;100.00
49947;BME280;35839;48.662;13.300;2023-03-04T07:18:25;97672.47;;;2.53;100.00
49947;BME280;35839;48.662;13.300;2023-03-04T07:20:52;97683.38;;;2.73;100.00
49947;BME280;35839;48.662;13.300;2023-03-04T07:23:17;97680.88;;;2.43;100.00
49947;BME280;35839;48.662;13.300;2023-03-04T07:25:43;97681.34;;;2.49;100.00
49947;BME280;35839;48.662;13.300;2023-03-04T07:28:08;97680.50;;;2.49;100.00
49947;BME280;35839;48.662;13.300;2023-03-04T07:30:33;97680.50;;;2.78;100.00
49947;BME280;35839;48.662;13.300;2023-03-04T07:32:59;97673.34;;;2.95;100.00
49947;BME280;35839;48.662;13.300;2023-03-04T07:35:24;97670.91;;;3.07;100.00
49947;BME280;35839;48.662;13.300;2023-03-04T07:37:49;97675.91;;;3.10;100.00
49947;BME280;35839;48.662;13.300;2023-03-04T07:40:15;97670.63;;;3.11;99.65
49947;BME280;35839;48.662;13.300;2023-03-04T07:42:40;97673.47;;;3.21;99.43
49947;BME280;35839;48.662;13.300;2023-03-04T07:45:06;97681.16;;;3.23;100.00
49947;BME280;35839;48.662;13.300;2023-03-04T07:47:32;97682.06;;;3.49;98.09
49947;BME280;35839;48.662;13.300;2023-03-04T07:49:57;97675.03;;;3.51;99.59
49947;BME280;35839;48.662;13.300;2023-03-04T07:52:22;97691.31;;;3.53;99.31
49947;BME280;35839;48.662;13.300;2023-03-04T07:54:48;97681.75;;;3.80;97.16
49947;BME280;35839;48.662;13.300;2023-03-04T07:57:13;97679.91;;;3.83;97.66
49947;BME280;35839;48.662;13.300;2023-03-04T07:59:39;97675.97;;;4.03;96.21
49947;BME280;35839;48.662;13.300;2023-03-04T08:02:04;97681.31;;;3.87;96.77
49947;BME280;35839;48.662;13.300;2023-03-04T08:04:30;97676.00;;;4.15;94.91
49947;BME280;35839;48.662;13.300;2023-03-04T08:06:55;97677.22;;;4.35;94.09
49947;BME280;35839;48.662;13.300;2023-03-04T08:09:20;97683.16;;;4.37;93.87
49947;BME280;35839;48.662;13.300;2023-03-04T08:11:45;97676.81;;;4.29;94.67
49947;BME280;35839;48.662;13.300;2023-03-04T08:14:12;97679.31;;;4.43;94.05
49947;BME280;35839;48.662;13.300;2023-03-04T08:16:38;97669.94;;;4.79;91.42
49947;BME280;35839;48.662;13.300;2023-03-04T08:19:04;97682.22;;;4.26;95.74
49947;BME280;35839;48.662;13.300;2023-03-04T08:21:30;97676.69;;;4.05;94.89
49947;BME280;35839;48.662;13.300;2023-03-04T08:23:57;97674.19;;;4.03;93.58
49947;BME280;35839;48.662;13.300;2023-03-04T08:26:29;97674.75;;;4.08;92.91
49947;BME280;35839;48.662;13.300;2023-03-04T08:28:56;97681.84;;;3.79;94.25
49947;BME280;35839;48.662;13.300;2023-03-04T08:31:22;97677.63;;;3.91;93.28
49947;BME280;35839;48.662;13.300;2023-03-04T08:33:47;97680.16;;;4.43;91.88
49947;BME280;35839;48.662;13.300;2023-03-04T08:36:14;97681.56;;;4.60;92.01
49947;BME280;35839;48.662;13.300;2023-03-04T08:38:39;97672.31;;;5.19;86.71
49947;BME280;35839;48.662;13.300;2023-03-04T08:41:05;97682.50;;;4.72;88.52
49947;BME280;35839;48.662;13.300;2023-03-04T08:43:31;97676.50;;;4.33;92.22
49947;BME280;35839;48.662;13.300;2023-03-04T08:45:57;97674.94;;;4.56;91.16
49947;BME280;35839;48.662;13.300;2023-03-04T08:48:23;97680.41;;;5.27;86.65
49947;BME280;35839;48.662;13.300;2023-03-04T08:50:49;97677.50;;;5.19;86.86
49947;BME280;35839;48.662;13.300;2023-03-04T08:53:15;97682.34;;;4.99;88.13
49947;BME280;35839;48.662;13.300;2023-03-04T08:55:41;97677.28;;;5.22;86.19
49947;BME280;35839;48.662;13.300;2023-03-04T08:58:07;97683.84;;;5.15;85.30
49947;BME280;35839;48.662;13.300;2023-03-04T09:00:34;97689.47;;;4.72;88.25
49947;BME280;35839;48.662;13.300;2023-03-04T09:03:00;97683.16;;;5.61;84.84
49947;BME280;35839;48.662;13.300;2023-03-04T09:05:26;97684.31;;;5.81;86.44
49947;BME280;35839;48.662;13.300;2023-03-04T09:07:51;97683.53;;;5.67;84.82
49947;BME280;35839;48.662;13.300;2023-03-04T09:10:16;97674.72;;;5.81;85.79
49947;BME280;35839;48.662;13.300;2023-03-04T09:12:42;97683.84;;;6.11;84.19
49947;BME280;35839;48.662;13.300;2023-03-04T09:15:07;97665.84;;;6.08;83.43
49947;BME280;35839;48.662;13.300;2023-03-04T09:17:33;97671.72;;;5.99;83.91
49947;BME280;35839;48.662;13.300;2023-03-04T09:19:58;97669.22;;;6.32;81.64
49947;BME280;35839;48.662;13.300;2023-03-04T09:22:23;97664.94;;;6.99;78.56
49947;BME280;35839;48.662;13.300;2023-03-04T09:24:49;97672.53;;;7.02;77.54
49947;BME280;35839;48.662;13.300;2023-03-04T09:27:14;97674.88;;;6.26;79.76
49947;BME280;35839;48.662;13.300;2023-03-04T09:29:39;97665.97;;;6.18;80.63
49947;BME280;35839;48.662;13.300;2023-03-04T09:32:05;97665.97;;;7.19;75.84
49947;BME280;35839;48.662;13.300;2023-03-04T09:34:30;97660.22;;;6.82;76.11
49947;BME280;35839;48.662;13.300;2023-03-04T09:36:55;97670.88;;;6.56;77.76
49947;BME280;35839;48.662;13.300;2023-03-04T09:39:21;97669.75;;;7.26;76.96
49947;BME280;35839;48.662;13.300;2023-03-04T09:41:52;97666.88;;;6.86;76.16
49947;BME280;35839;48.662;13.300;2023-03-04T09:44:33;97664.28;;;7.62;74.03
49947;BME280;35839;48.662;13.300;2023-03-04T09:47:03;97668.53;;;7.42;74.22
49947;BME280;35839;48.662;13.300;2023-03-04T09:49:30;97667.97;;;7.15;76.22
49947;BME280;35839;48.662;13.300;2023-03-04T09:51:58;97672.88;;;7.09;73.03
49947;BME280;35839;48.662;13.300;2023-03-04T09:54:30;97669.03;;;7.24;73.23
49947;BME280;35839;48.662;13.300;2023-03-04T09:57:03;97669.59;;;7.39;75.28
49947;BME280;35839;48.662;13.300;2023-03-04T09:59:40;97666.59;;;7.76;73.81
49947;BME280;35839;48.662;13.300;2023-03-04T10:02:21;97666.06;;;8.56;66.31
49947;BME280;35839;48.662;13.300;2023-03-04T10:04:58;97653.66;;;8.49;64.52
49947;BME280;35839;48.662;13.300;2023-03-04T10:07:32;97654.22;;;8.10;68.39
49947;BME280;35839;48.662;13.300;2023-03-04T10:10:04;97652.41;;;8.53;65.53
49947;BME280;35839;48.662;13.300;2023-03-04T10:12:33;97666.19;;;7.27;68.10
49947;BME280;35839;48.662;13.300;2023-03-04T10:15:21;97670.25;;;7.52;66.20
49947;BME280;35839;48.662;13.300;2023-03-04T10:17:49;97665.13;;;7.62;65.11
49947;BME280;35839;48.662;13.300;2023-03-04T10:20:21;97663.97;;;7.55;65.41
49947;BME280;35839;48.662;13.300;2023-03-04T10:22:59;97662.53;;;7.18;68.76
49947;BME280;35839;48.662;13.300;2023-03-04T10:25:29;97655.75;;;8.13;68.58
49947;BME280;35839;48.662;13.300;2023-03-04T10:27:58;97652.91;;;7.95;65.97
49947;BME280;35839;48.662;13.300;2023-03-04T10:33:31;97650.47;;;8.76;63.26
49947;BME280;35839;48.662;13.300;2023-03-04T10:38:36;97645.91;;;7.95;61.81
49947;BME280;35839;48.662;13.300;2023-03-04T10:41:16;97639.00;;;8.36;61.95
49947;BME280;35839;48.662;13.300;2023-03-04T10:43:49;97641.72;;;8.86;61.61
49947;BME280;35839;48.662;13.300;2023-03-04T10:46:14;97646.25;;;8.54;58.83
49947;BME280;35839;48.662;13.300;2023-03-04T10:48:41;97651.88;;;7.86;62.57
49947;BME280;35839;48.662;13.300;2023-03-04T10:51:26;97634.88;;;8.95;62.08
49947;BME280;35839;48.662;13.300;2023-03-04T10:53:57;97624.88;;;9.29;59.54
49947;BME280;35839;48.662;13.300;2023-03-04T10:56:34;97627.84;;;8.86;59.81
49947;BME280;35839;48.662;13.300;2023-03-04T11:02:13;97637.06;;;8.08;59.70
49947;BME280;35839;48.662;13.300;2023-03-04T11:04:39;97632.25;;;8.55;60.88
49947;BME280;35839;48.662;13.300;2023-03-04T11:07:09;97623.16;;;7.97;61.70
49947;BME280;35839;48.662;13.300;2023-03-04T11:09:35;97632.41;;;8.32;62.18
49947;BME280;35839;48.662;13.300;2023-03-04T11:12:02;97627.69;;;8.88;63.23
49947;BME280;35839;48.662;13.300;2023-03-04T11:14:48;97636.78;;;7.90;64.44
49947;BME280;35839;48.662;13.300;2023-03-04T11:17:18;97630.19;;;8.07;64.43
49947;BME280;35839;48.662;13.300;2023-03-04T11:19:47;97622.41;;;8.68;63.76
49947;BME280;35839;48.662;13.300;2023-03-04T11:22:18;97629.03;;;7.78;64.78
49947;BME280;35839;48.662;13.300;2023-03-04T11:24:57;97629.16;;;8.19;63.47
49947;BME280;35839;48.662;13.300;2023-03-04T11:27:32;97628.78;;;7.81;64.68
49947;BME280;35839;48.662;13.300;2023-03-04T11:32:54;97622.38;;;9.18;59.70
49947;BME280;35839;48.662;13.300;2023-03-04T11:35:33;97619.63;;;8.60;60.54
49947;BME280;35839;48.662;13.300;2023-03-04T11:38:19;97628.94;;;8.53;60.00
49947;BME280;35839;48.662;13.300;2023-03-04T11:40:49;97618.13;;;7.52;62.92
49947;BME280;35839;48.662;13.300;2023-03-04T11:43:35;97619.94;;;7.73;63.26
49947;BME280;35839;48.662;13.300;2023-03-04T11:46:15;97615.84;;;7.38;62.77
49947;BME280;35839;48.662;13.300;2023-03-04T11:51:37;97603.16;;;8.08;61.75
49947;BME280;35839;48.662;13.300;2023-03-04T11:54:16;97616.69;;;8.01;60.87
49947;BME280;35839;48.662;13.300;2023-03-04T11:56:51;97600.88;;;7.93;61.87
49947;BME280;35839;48.662;13.300;2023-03-04T12:10:29;97606.66;;;6.45;64.26
49947;BME280;35839;48.662;13.300;2023-03-04T12:13:40;97595.34;;;7.87;60.37
49947;BME280;35839;48.662;13.300;2023-03-04T12:16:15;97580.97;;;8.94;56.71
49947;BME280;35839;48.662;13.300;2023-03-04T12:19:16;97597.81;;;7.46;58.85
49947;BME280;35839;48.662;13.300;2023-03-04T12:22:02;97582.09;;;7.78;58.21
49947;BME280;35839;48.662;13.300;2023-03-04T12:25:23;97596.97;;;6.36;62.03
49947;BME280;35839;48.662;13.300;2023-03-04T12:35:43;97590.88;;;6.92;60.44
49947;BME280;35839;48.662;13.300;2023-03-04T12:52:25;97583.00;;;6.15;63.74
49947;BME280;35839;48.662;13.300;2023-03-04T12:55:01;97589.75;;;6.28;63.38
49947;BME280;35839;48.662;13.300;2023-03-04T12:57:28;97581.69;;;6.65;61.79
49947;BME280;35839;48.662;13.300;2023-03-04T13:00:33;97590.31;;;4.92;67.85
49947;BME280;35839;48.662;13.300;2023-03-04T13:03:22;97589.34;;;5.88;64.88
49947;BME280;35839;48.662;13.300;2023-03-04T13:09:01;97573.19;;;5.49;67.56
49947;BME280;35839;48.662;13.300;2023-03-04T13:16:49;97569.34;;;5.77;65.70
49947;BME280;35839;48.662;13.300;2023-03-04T13:22:29;97592.09;;;4.79;69.88
49947;BME280;35839;48.662;13.300;2023-03-04T13:24:58;97558.84;;;5.32;66.53
49947;BME280;35839;48.662;13.300;2023-03-04T13:27:43;97570.69;;;5.36;69.41
49947;BME280;35839;48.662;13.300;2023-03-04T13:41:20;97567.34;;;5.69;66.42
49947;BME280;35839;48.662;13.300;2023-03-04T13:43:46;97556.69;;;5.26;67.06
49947;BME280;35839;48.662;13.300;2023-03-04T13:53:51;97562.38;;;5.66;66.72
49947;BME280;35839;48.662;13.300;2023-03-04T13:59:33;97560.28;;;6.62;65.07
49947;BME280;35839;48.662;13.300;2023-03-04T14:02:15;97565.88;;;6.46;63.10
49947;BME280;35839;48.662;13.300;2023-03-04T14:04:44;97549.41;;;6.68;63.66
49947;BME280;35839;48.662;13.300;2023-03-04T14:10:37;97565.50;;;5.36;66.61
49947;BME280;35839;48.662;13.300;2023-03-04T14:12:47;97556.03;;;6.72;62.11
49947;BME280;35839;48.662;13.300;2023-03-04T14:17:39;97559.88;;;5.65;64.69
49947;BME280;35839;48.662;13.300;2023-03-04T14:22:47;97561.56;;;5.88;66.90
49947;BME280;35839;48.662;13.300;2023-03-04T14:27:37;97560.31;;;4.88;70.75
49947;BME280;35839;48.662;13.300;2023-03-04T14:30:12;97550.03;;;4.86;71.65
49947;BME280;35839;48.662;13.300;2023-03-04T14:32:43;97559.00;;;5.06;70.86
49947;BME280;35839;48.662;13.300;2023-03-04T14:35:22;97549.81;;;4.65;74.03
49947;BME280;35839;48.662;13.300;2023-03-04T14:37:55;97535.75;;;4.44;74.72
49947;BME280;35839;48.662;13.300;2023-03-04T14:40:25;97543.63;;;4.55;74.13
49947;BME280;35839;48.662;13.300;2023-03-04T14:43:38;97536.41;;;4.35;73.58
49947;BME280;35839;48.662;13.300;2023-03-04T14:45:45;97539.31;;;4.43;74.69
49947;BME280;35839;48.662;13.300;2023-03-04T14:48:18;97538.38;;;4.44;75.73
49947;BME280;35839;48.662;13.300;2023-03-04T14:50:49;97542.41;;;4.35;74.75
49947;BME280;35839;48.662;13.300;2023-03-04T14:53:17;97543.75;;;3.78;77.70
49947;BME280;35839;48.662;13.300;2023-03-04T14:56:07;97538.31;;;4.07;75.45
49947;BME280;35839;48.662;13.300;2023-03-04T14:58:38;97543.53;;;4.44;74.28
49947;BME280;35839;48.662;13.300;2023-03-04T15:01:15;97540.31;;;4.53;74.50
49947;BME280;35839;48.662;13.300;2023-03-04T15:03:52;97539.47;;;3.77;78.15
49947;BME280;35839;48.662;13.300;2023-03-04T15:06:21;97550.16;;;3.60;78.19
49947;BME280;35839;48.662;13.300;2023-03-04T15:09:02;97543.09;;;4.00;78.05
49947;BME280;35839;48.662;13.300;2023-03-04T15:11:32;97531.38;;;3.44;79.12
49947;BME280;35839;48.662;13.300;2023-03-04T15:14:47;97530.88;;;4.15;76.67
49947;BME280;35839;48.662;13.300;2023-03-04T15:17:36;97536.38;;;3.72;77.52
49947;BME280;35839;48.662;13.300;2023-03-04T15:22:34;97527.31;;;4.29;76.77
49947;BME280;35839;48.662;13.300;2023-03-04T15:24:59;97526.13;;;3.84;77.76
49947;BME280;35839;48.662;13.300;2023-03-04T15:27:26;97528.41;;;3.75;76.69
49947;BME280;35839;48.662;13.300;2023-03-04T15:29:53;97536.66;;;4.19;75.79
49947;BME280;35839;48.662;13.300;2023-03-04T15:32:29;97529.59;;;4.34;76.12
49947;BME280;35839;48.662;13.300;2023-03-04T15:34:55;97532.13;;;3.97;76.08
49947;BME280;35839;48.662;13.300;2023-03-04T15:37:26;97529.44;;;3.86;76.48
49947;BME280;35839;48.662;13.300;2023-03-04T15:39:54;97524.25;;;3.73;78.11
49947;BME280;35839;48.662;13.300;2023-03-04T15:42:20;97526.31;;;3.93;77.63
49947;BME280;35839;48.662;13.300;2023-03-04T15:44:45;97519.91;;;3.86;77.00
49947;BME280;35839;48.662;13.300;2023-03-04T15:47:11;97529.22;;;3.89;76.90
49947;BME280;35839;48.662;13.300;2023-03-04T15:49:41;97520.38;;;4.17;75.63
49947;BME280;35839;48.662;13.300;2023-03-04T15:52:12;97522.41;;;3.62;77.38
49947;BME280;35839;48.662;13.300;2023-03-04T15:54:39;97520.53;;;3.90;75.86
49947;BME280;35839;48.662;13.300;2023-03-04T15:57:10;97522.06;;;3.79;78.02
49947;BME280;35839;48.662;13.300;2023-03-04T15:59:37;97520.03;;;3.85;77.10
49947;BME280;35839;48.662;13.300;2023-03-04T16:02:08;97531.41;;;3.69;77.42
49947;BME280;35839;48.662;13.300;2023-03-04T16:04:35;97521.56;;;3.74;78.75
49947;BME280;35839;48.662;13.300;2023-03-04T16:07:00;97524.16;;;3.87;77.69
49947;BME280;35839;48.662;13.300;2023-03-04T16:09:25;97529.00;;;4.17;76.80
49947;BME280;35839;48.662;13.300;2023-03-04T16:11:51;97519.59;;;3.65;79.52
49947;BME280;35839;48.662;13.300;2023-03-04T16:14:20;97535.63;;;3.70;77.77
49947;BME280;35839;48.662;13.300;2023-03-04T16:16:45;97530.19;;;4.37;75.31
49947;BME280;35839;48.662;13.300;2023-03-04T16:19:11;97526.94;;;3.97;75.55
49947;BME280;35839;48.662;13.300;2023-03-04T16:21:37;97517.84;;;3.53;78.49
49947;BME280;35839;48.662;13.300;2023-03-04T16:24:02;97533.03;;;3.96;77.31
49947;BME280;35839;48.662;13.300;2023-03-04T16:26:29;97534.72;;;3.97;77.21
49947;BME280;35839;48.662;13.300;2023-03-04T16:28:54;97524.66;;;3.79;77.64
49947;BME280;35839;48.662;13.300;2023-03-04T16:31:21;97525.16;;;4.47;74.16
49947;BME280;35839;48.662;13.300;2023-03-04T16:33:46;97526.47;;;4.29;75.55
49947;BME280;35839;48.662;13.300;2023-03-04T16:36:23;97533.59;;;4.75;72.95
49947;BME280;35839;48.662;13.300;2023-03-04T16:38:50;97528.38;;;4.51;73.69
49947;BME280;35839;48.662;13.300;2023-03-04T16:41:19;97543.09;;;4.13;75.83
49947;BME280;35839;48.662;13.300;2023-03-04T16:43:46;97534.50;;;3.49;78.45
49947;BME280;35839;48.662;13.300;2023-03-04T16:46:12;97535.41;;;4.12;75.23
49947;BME280;35839;48.662;13.300;2023-03-04T16:48:38;97530.16;;;3.88;75.88
49947;BME280;35839;48.662;13.300;2023-03-04T16:51:11;97538.31;;;4.20;74.67
49947;BME280;35839;48.662;13.300;2023-03-04T16:53:37;97539.53;;;4.27;74.13
49947;BME280;35839;48.662;13.300;2023-03-04T16:56:09;97538.22;;;3.96;75.78
49947;BME280;35839;48.662;13.300;2023-03-04T16:58:35;97539.78;;;4.11;74.25
49947;BME280;35839;48.662;13.300;2023-03-04T17:01:00;97540.19;;;4.18;73.69
49947;BME280;35839;48.662;13.300;2023-03-04T17:03:26;97547.56;;;3.86;75.69
49947;BME280;35839;48.662;13.300;2023-03-04T17:05:51;97543.69;;;4.17;73.59
49947;BME280;35839;48.662;13.300;2023-03-04T17:08:17;97552.78;;;4.48;71.30
49947;BME280;35839;48.662;13.300;2023-03-04T17:10:42;97551.75;;;4.38;72.49
49947;BME280;35839;48.662;13.300;2023-03-04T17:13:07;97542.41;;;4.96;68.31
49947;BME280;35839;48.662;13.300;2023-03-04T17:15:32;97547.66;;;3.97;73.36
49947;BME280;35839;48.662;13.300;2023-03-04T17:17:58;97540.81;;;4.09;72.57
49947;BME280;35839;48.662;13.300;2023-03-04T17:20:23;97551.28;;;4.20;74.16
49947;BME280;35839;48.662;13.300;2023-03-04T17:22:48;97553.03;;;3.94;74.82
49947;BME280;35839;48.662;13.300;2023-03-04T17:25:14;97551.47;;;4.30;74.01
49947;BME280;35839;48.662;13.300;2023-03-04T17:27:40;97554.25;;;4.39;73.52
49947;BME280;35839;48.662;13.300;2023-03-04T17:30:10;97553.56;;;4.25;73.38
49947;BME280;35839;48.662;13.300;2023-03-04T17:32:36;97557.53;;;3.92;75.69
49947;BME280;35839;48.662;13.300;2023-03-04T17:35:03;97554.50;;;3.98;75.92
49947;BME280;35839;48.662;13.300;2023-03-04T17:37:29;97548.88;;;4.91;71.08
49947;BME280;35839;48.662;13.300;2023-03-04T17:39:54;97555.44;;;3.97;76.65
49947;BME280;35839;48.662;13.300;2023-03-04T17:42:20;97563.22;;;3.97;76.34
49947;BME280;35839;48.662;13.300;2023-03-04T17:44:45;97565.66;;;4.24;74.72
49947;BME280;35839;48.662;13.300;2023-03-04T17:47:11;97556.56;;;4.18;74.83
49947;BME280;35839;48.662;13.300;2023-03-04T17:49:36;97564.44;;;4.04;76.07
49947;BME280;35839;48.662;13.300;2023-03-04T17:52:03;97559.69;;;3.98;77.41
49947;BME280;35839;48.662;13.300;2023-03-04T17:54:28;97564.44;;;4.04;77.11
49947;BME280;35839;48.662;13.300;2023-03-04T17:56:54;97557.38;;;4.32;74.19
49947;BME280;35839;48.662;13.300;2023-03-04T17:59:19;97563.81;;;4.87;72.84
49947;BME280;35839;48.662;13.300;2023-03-04T18:01:45;97573.28;;;4.51;74.10
49947;BME280;35839;48.662;13.300;2023-03-04T18:04:11;97566.47;;;4.50;75.27
49947;BME280;35839;48.662;13.300;2023-03-04T18:06:36;97567.78;;;4.93;73.09
49947;BME280;35839;48.662;13.300;2023-03-04T18:09:02;97575.25;;;4.84;72.63
49947;BME280;35839;48.662;13.300;2023-03-04T18:11:28;97561.38;;;4.36;75.96
49947;BME280;35839;48.662;13.300;2023-03-04T18:13:54;97569.06;;;4.50;75.40
49947;BME280;35839;48.662;13.300;2023-03-04T18:16:19;97570.78;;;4.00;77.52
49947;BME280;35839;48.662;13.300;2023-03-04T18:18:50;97567.59;;;4.83;76.36
49947;BME280;35839;48.662;13.300;2023-03-04T18:21:17;97571.63;;;5.11;74.26
49947;BME280;35839;48.662;13.300;2023-03-04T18:23:43;97564.94;;;4.72;75.28
49947;BME280;35839;48.662;13.300;2023-03-04T18:26:08;97574.88;;;4.41;77.00
49947;BME280;35839;48.662;13.300;2023-03-04T18:28:34;97566.16;;;5.03;73.66
49947;BME280;35839;48.662;13.300;2023-03-04T18:30:59;97568.97;;;4.39;77.65
49947;BME280;35839;48.662;13.300;2023-03-04T18:33:26;97569.84;;;4.01;78.71
49947;BME280;35839;48.662;13.300;2023-03-04T18:35:59;97565.47;;;4.14;77.82
49947;BME280;35839;48.662;13.300;2023-03-04T18:38:25;97558.13;;;4.95;75.62
49947;BME280;35839;48.662;13.300;2023-03-04T18:40:50;97559.81;;;5.07;74.69
49947;BME280;35839;48.662;13.300;2023-03-04T18:43:17;97557.16;;;4.72;75.74
49947;BME280;35839;48.662;13.300;2023-03-04T18:45:42;97555.13;;;4.51;77.72
49947;BME280;35839;48.662;13.300;2023-03-04T18:48:07;97558.84;;;5.08;75.43
49947;BME280;35839;48.662;13.300;2023-03-04T18:50:33;97557.31;;;4.57;76.61
49947;BME280;35839;48.662;13.300;2023-03-04T18:52:58;97561.63;;;4.94;76.10
49947;BME280;35839;48.662;13.300;2023-03-04T18:55:23;97553.44;;;4.87;75.43
49947;BME280;35839;48.662;13.300;2023-03-04T18:57:51;97552.19;;;4.93;74.92
49947;BME280;35839;48.662;13.300;2023-03-04T19:00:20;97557.22;;;4.83;75.24
49947;BME280;35839;48.662;13.300;2023-03-04T19:03:05;97565.28;;;4.91;75.40
49947;BME280;35839;48.662;13.300;2023-03-04T19:05:32;97568.97;;;4.39;77.35
49947;BME280;35839;48.662;13.300;2023-03-04T19:07:58;97562.97;;;4.26;78.04
49947;BME280;35839;48.662;13.300;2023-03-04T19:10:24;97568.72;;;4.55;78.51
49947;BME280;35839;48.662;13.300;2023-03-04T19:12:49;97573.06;;;4.54;77.63
49947;BME280;35839;48.662;13.300;2023-03-04T19:15:15;97567.03;;;5.15;74.46
49947;BME280;35839;48.662;13.300;2023-03-04T19:17:42;97577.69;;;4.75;76.97
49947;BME280;35839;48.662;13.300;2023-03-04T19:20:11;97579.22;;;4.77;76.63
49947;BME280;35839;48.662;13.300;2023-03-04T19:22:36;97574.91;;;4.78;76.67
49947;BME280;35839;48.662;13.300;2023-03-04T19:25:02;97585.16;;;4.30;77.71
49947;BME280;35839;48.662;13.300;2023-03-04T19:27:27;97578.97;;;4.56;77.83
49947;BME280;35839;48.662;13.300;2023-03-04T19:29:53;97585.75;;;4.46;78.24
49947;BME280;35839;48.662;13.300;2023-03-04T19:32:18;97583.50;;;4.03;80.62
49947;BME280;35839;48.662;13.300;2023-03-04T19:34:44;97577.00;;;4.60;76.87
49947;BME280;35839;48.662;13.300;2023-03-04T19:37:10;97575.19;;;4.36;79.39
49947;BME280;35839;48.662;13.300;2023-03-04T19:39:36;97580.00;;;4.04;79.97
49947;BME280;35839;48.662;13.300;2023-03-04T19:42:02;97582.69;;;4.03;82.19
49947;BME280;35839;48.662;13.300;2023-03-04T19:44:27;97578.66;;;4.11;80.74
49947;BME280;35839;48.662;13.300;2023-03-04T19:46:52;97577.00;;;4.60;78.38
49947;BME280;35839;48.662;13.300;2023-03-04T19:49:18;97578.31;;;4.29;78.76
49947;BME280;35839;48.662;13.300;2023-03-04T19:51:43;97581.50;;;4.82;77.26
49947;BME280;35839;48.662;13.300;2023-03-04T19:54:09;97578.63;;;4.24;80.80
49947;BME280;35839;48.662;13.300;2023-03-04T19:56:35;97583.50;;;4.29;80.15
49947;BME280;35839;48.662;13.300;2023-03-04T19:59:00;97580.75;;;4.56;78.31
49947;BME280;35839;48.662;13.300;2023-03-04T20:01:34;97583.75;;;4.86;76.15
49947;BME280;35839;48.662;13.300;2023-03-04T20:04:03;97591.59;;;4.11;79.49
49947;BME280;35839;48.662;13.300;2023-03-04T20:06:29;97588.72;;;3.90;81.08
49947;BME280;35839;48.662;13.300;2023-03-04T20:08:57;97588.06;;;4.25;80.62
49947;BME280;35839;48.662;13.300;2023-03-04T20:11:23;97583.91;;;4.35;79.50
49947;BME280;35839;48.662;13.300;2023-03-04T20:13:48;97589.31;;;3.94;81.86
49947;BME280;35839;48.662;13.300;2023-03-04T20:16:14;97583.94;;;3.97;81.38
49947;BME280;35839;48.662;13.300;2023-03-04T20:18:40;97589.63;;;4.02;80.86